createdAt,value
2022-11-12T00:00:59.128Z,8.18
2022-11-12T00:02:01.143Z,7.05
2022-11-12T00:03:04.563Z,7.45
2022-11-12T00:04:09.313Z,8.20
2022-11-12T00:05:11.393Z,9.00
2022-11-12T00:06:14.295Z,8.15
2022-11-12T00:07:16.252Z,6.55
2022-11-12T00:08:19.965Z,11.35
2022-11-12T00:09:21.908Z,13.98
2022-11-12T00:10:24.988Z,10.00
2022-11-12T00:11:26.902Z,8.77
2022-11-12T00:12:29.826Z,8.35
2022-11-12T00:13:31.808Z,8.45
2022-11-12T00:14:36.076Z,7.20
2022-11-12T00:15:38.035Z,7.25
2022-11-12T00:16:40.920Z,7.13
2022-11-12T00:17:42.897Z,6.15
2022-11-12T00:18:48.193Z,5.63
2022-11-12T00:19:50.173Z,5.75
2022-11-12T00:20:53.105Z,6.38
2022-11-12T00:21:55.049Z,6.47
2022-11-12T00:22:58.052Z,5.78
2022-11-12T00:24:00.184Z,5.72
2022-11-12T00:25:03.400Z,5.97
2022-11-12T00:26:05.545Z,6.10
2022-11-12T00:27:08.513Z,5.97
2022-11-12T00:28:11.499Z,6.70
2022-11-12T00:29:14.402Z,6.43
2022-11-12T00:30:18.085Z,6.25
2022-11-12T00:31:21.006Z,6.03
2022-11-12T00:32:22.942Z,5.90
2022-11-12T00:33:25.888Z,5.70
2022-11-12T00:34:27.916Z,5.65
2022-11-12T00:35:32.048Z,6.88
2022-11-12T00:36:34.008Z,5.35
2022-11-12T00:37:36.965Z,4.90
2022-11-12T00:38:39.053Z,5.82
2022-11-12T00:39:41.956Z,5.10
2022-11-12T00:40:43.918Z,5.50
2022-11-12T00:41:46.829Z,6.20
2022-11-12T00:42:50.593Z,5.15
2022-11-12T00:43:53.528Z,5.35
2022-11-12T00:44:55.483Z,4.97
2022-11-12T00:45:59.723Z,6.07
2022-11-12T00:47:01.665Z,5.75
2022-11-12T00:48:04.752Z,5.97
2022-11-12T00:49:06.706Z,5.68
2022-11-12T00:50:10.653Z,6.07
2022-11-12T00:51:12.610Z,5.82
2022-11-12T00:52:15.509Z,5.43
2022-11-12T00:53:17.897Z,5.60
2022-11-12T00:54:20.793Z,5.32
2022-11-12T00:55:23.696Z,5.90
2022-11-12T00:56:25.642Z,5.68
2022-11-12T00:57:28.542Z,5.63
2022-11-12T00:58:31.204Z,5.72
2022-11-12T00:59:34.206Z,4.75
2022-11-12T01:00:36.162Z,5.85
2022-11-12T01:01:40.884Z,5.00
2022-11-12T01:02:47.666Z,5.15
2022-11-12T01:03:53.992Z,7.03
2022-11-12T01:04:55.991Z,5.50
2022-11-12T01:06:03.741Z,5.65
2022-11-12T01:07:05.703Z,5.15
2022-11-12T01:08:08.670Z,5.45
2022-11-12T01:09:10.689Z,6.05
2022-11-12T01:10:15.435Z,6.07
2022-11-12T01:11:20.165Z,6.10
2022-11-12T01:12:23.136Z,6.70
2022-11-12T01:13:25.083Z,6.43
2022-11-12T01:14:28.058Z,5.93
2022-11-12T01:15:30.184Z,5.35
2022-11-12T01:16:36.492Z,5.43
2022-11-12T01:17:39.771Z,5.72
2022-11-12T01:18:43.110Z,5.70
2022-11-12T01:19:45.020Z,5.75
2022-11-12T01:20:47.988Z,5.35
2022-11-12T01:21:50.036Z,5.38
2022-11-12T01:22:52.924Z,5.72
2022-11-12T01:23:56.731Z,4.82
2022-11-12T01:24:59.657Z,5.05
2022-11-12T01:26:04.464Z,5.55
2022-11-12T01:27:07.504Z,6.05
2022-11-12T01:28:09.415Z,5.53
2022-11-12T01:29:12.428Z,5.15
2022-11-12T01:30:14.595Z,5.47
2022-11-12T01:31:19.773Z,6.10
2022-11-12T01:32:21.737Z,5.55
2022-11-12T01:33:26.038Z,5.35
2022-11-12T01:34:28.179Z,5.60
2022-11-12T01:35:31.281Z,5.90
2022-11-12T01:36:35.169Z,5.55
2022-11-12T01:37:38.101Z,5.80
2022-11-12T01:38:41.496Z,4.85
2022-11-12T01:39:44.475Z,5.47
2022-11-12T01:40:46.436Z,5.00
2022-11-12T01:41:49.369Z,5.15
2022-11-12T01:42:52.592Z,6.15
2022-11-12T01:44:17.549Z,6.22
2022-11-12T01:45:19.825Z,5.13
2022-11-12T01:46:27.510Z,4.43
2022-11-12T01:47:33.019Z,5.38
2022-11-12T01:48:42.248Z,6.18
2022-11-12T01:49:53.224Z,5.00
2022-11-12T01:50:58.667Z,4.90
2022-11-12T01:52:11.029Z,4.50
2022-11-12T01:53:14.969Z,5.45
2022-11-12T01:54:20.410Z,5.03
2022-11-12T01:55:26.911Z,4.97
2022-11-12T01:56:30.871Z,5.22
2022-11-12T01:57:38.881Z,5.05
2022-11-12T01:58:41.368Z,5.45
2022-11-12T01:59:47.660Z,4.88
2022-11-12T02:00:50.994Z,5.03
2022-11-12T02:01:53.982Z,4.10
2022-11-12T02:02:59.072Z,4.65
2022-11-12T02:04:03.804Z,4.88
2022-11-12T02:05:08.844Z,4.55
2022-11-12T02:06:15.516Z,4.35
2022-11-12T02:07:19.135Z,4.93
2022-11-12T02:08:24.028Z,4.70
2022-11-12T02:09:27.017Z,4.47
2022-11-12T02:10:30.444Z,5.10
2022-11-12T02:11:32.361Z,4.78
2022-11-12T02:12:53.232Z,4.95
2022-11-12T02:13:58.942Z,5.00
2022-11-12T02:15:01.153Z,4.47
2022-11-12T02:16:03.561Z,4.07
2022-11-12T02:17:06.622Z,4.80
2022-11-12T02:18:09.310Z,4.80
2022-11-12T02:19:16.471Z,4.00
2022-11-12T02:20:18.893Z,4.15
2022-11-12T02:21:24.029Z,4.60
2022-11-12T02:22:25.969Z,4.03
2022-11-12T02:23:28.864Z,4.85
2022-11-12T02:24:40.257Z,4.10
2022-11-12T02:25:42.296Z,4.40
2022-11-12T02:26:48.118Z,4.00
2022-11-12T02:27:52.480Z,4.85
2022-11-12T02:28:55.395Z,4.05
2022-11-12T02:29:57.319Z,4.10
2022-11-12T02:31:00.206Z,4.47
2022-11-12T02:32:02.160Z,3.78
2022-11-12T02:33:05.346Z,3.90
2022-11-12T02:34:07.263Z,3.75
2022-11-12T02:35:10.458Z,3.90
2022-11-12T02:36:12.396Z,4.30
2022-11-12T02:37:16.702Z,4.15
2022-11-12T02:38:18.623Z,3.88
2022-11-12T02:39:21.589Z,4.10
2022-11-12T02:40:23.851Z,4.00
2022-11-12T02:41:26.812Z,4.13
2022-11-12T02:42:28.763Z,4.30
2022-11-12T02:43:31.675Z,3.35
2022-11-12T02:44:34.763Z,3.78
2022-11-12T02:45:36.699Z,4.00
2022-11-12T02:46:39.623Z,3.80
2022-11-12T02:47:41.584Z,3.72
2022-11-12T02:48:45.126Z,3.55
2022-11-12T02:49:47.102Z,3.33
2022-11-12T02:50:49.980Z,3.00
2022-11-12T02:51:51.947Z,4.22
2022-11-12T02:52:56.214Z,3.25
2022-11-12T02:53:58.263Z,3.45
2022-11-12T02:55:01.551Z,3.45
2022-11-12T02:56:04.174Z,3.58
2022-11-12T02:57:07.106Z,3.28
2022-11-12T02:58:09.033Z,3.90
2022-11-12T02:59:11.937Z,3.92
2022-11-12T03:00:14.433Z,4.28
2022-11-12T03:01:17.459Z,3.80
2022-11-12T03:02:19.421Z,4.78
2022-11-12T03:03:22.468Z,4.10
2022-11-12T03:04:24.415Z,4.00
2022-11-12T03:05:28.184Z,3.70
2022-11-12T03:06:30.132Z,4.20
2022-11-12T03:07:33.154Z,4.05
2022-11-12T03:08:36.500Z,4.85
2022-11-12T03:09:39.465Z,3.45
2022-11-12T03:10:41.423Z,4.18
2022-11-12T03:11:44.352Z,3.97
2022-11-12T03:12:46.252Z,5.28
2022-11-12T03:13:49.229Z,3.95
2022-11-12T03:14:51.161Z,4.00
2022-11-12T03:16:00.568Z,4.72
2022-11-12T03:17:02.479Z,3.80
2022-11-12T03:18:05.408Z,3.53
2022-11-12T03:19:07.538Z,4.03
2022-11-12T03:20:11.542Z,3.97
2022-11-12T03:21:13.515Z,3.55
2022-11-12T03:22:16.698Z,3.95
2022-11-12T03:23:18.668Z,3.90
2022-11-12T03:24:22.987Z,4.20
2022-11-12T03:25:25.236Z,4.53
2022-11-12T03:26:33.046Z,4.63
2022-11-12T03:27:37.493Z,4.10
2022-11-12T03:28:40.409Z,3.72
2022-11-12T03:29:42.358Z,4.60
2022-11-12T03:30:46.113Z,4.55
2022-11-12T03:31:48.039Z,4.03
2022-11-12T03:32:50.964Z,5.07
2022-11-12T03:33:52.933Z,4.28
2022-11-12T03:34:55.901Z,3.33
2022-11-12T03:35:57.953Z,4.93
2022-11-12T03:37:00.836Z,3.88
2022-11-12T03:38:03.932Z,4.15
2022-11-12T03:39:07.022Z,4.70
2022-11-12T03:40:11.249Z,4.78
2022-11-12T03:41:14.219Z,4.40
2022-11-12T03:42:16.182Z,4.80
2022-11-12T03:43:19.080Z,3.92
2022-11-12T03:44:21.019Z,4.82
2022-11-12T03:45:27.877Z,3.88
2022-11-12T03:46:29.848Z,4.30
2022-11-12T03:47:32.763Z,4.00
2022-11-12T03:48:34.734Z,3.70
2022-11-12T03:49:37.619Z,4.50
2022-11-12T03:50:39.576Z,4.25
2022-11-12T03:51:42.499Z,4.63
2022-11-12T03:52:45.332Z,4.10
2022-11-12T03:53:48.296Z,4.38
2022-11-12T03:54:50.250Z,3.75
2022-11-12T03:55:54.822Z,3.75
2022-11-12T03:56:56.744Z,4.53
2022-11-12T03:57:59.751Z,4.38
2022-11-12T03:59:01.812Z,3.97
2022-11-12T04:00:05.770Z,3.80
2022-11-12T04:01:07.996Z,4.15
2022-11-12T04:02:14.377Z,4.72
2022-11-12T04:03:16.388Z,4.03
2022-11-12T04:04:19.316Z,3.80
2022-11-12T04:05:40.148Z,3.45
2022-11-12T04:07:00.713Z,3.50
2022-11-12T04:08:24.164Z,3.75
2022-11-12T04:09:27.295Z,4.03
2022-11-12T04:10:29.649Z,3.95
2022-11-12T04:11:33.963Z,4.10
2022-11-12T04:12:54.609Z,4.15
2022-11-12T04:13:56.532Z,3.78
2022-11-12T04:14:59.431Z,3.47
2022-11-12T04:16:21.604Z,4.38
2022-11-12T04:17:42.149Z,4.00
2022-11-12T04:19:03.392Z,4.32
2022-11-12T04:20:25.006Z,3.28
2022-11-12T04:21:49.321Z,3.35
2022-11-12T04:22:52.278Z,3.78
2022-11-12T04:23:54.211Z,3.70
2022-11-12T04:25:14.691Z,3.58
2022-11-12T04:26:25.732Z,3.60
2022-11-12T04:27:32.606Z,4.07
2022-11-12T04:28:34.532Z,3.75
2022-11-12T04:29:55.079Z,3.35
2022-11-12T04:30:57.048Z,3.67
2022-11-12T04:31:59.947Z,4.00
2022-11-12T04:33:02.864Z,4.13
2022-11-12T04:34:19.659Z,4.45
2022-11-12T04:35:23.905Z,3.50
2022-11-12T04:36:25.816Z,3.55
2022-11-12T04:37:44.135Z,3.40
2022-11-12T04:38:46.064Z,3.90
2022-11-12T04:39:48.999Z,4.55
2022-11-12T04:41:09.329Z,4.30
2022-11-12T04:42:29.949Z,3.70
2022-11-12T04:43:51.453Z,3.88
2022-11-12T04:45:11.256Z,3.72
2022-11-12T04:46:14.216Z,3.58
2022-11-12T04:47:16.121Z,4.07
2022-11-12T04:48:19.502Z,3.47
2022-11-12T04:49:21.420Z,4.68
2022-11-12T04:50:24.369Z,4.03
2022-11-12T04:51:44.930Z,3.50
2022-11-12T04:52:47.840Z,3.70
2022-11-12T04:53:49.755Z,3.70
2022-11-12T04:54:53.488Z,4.95
2022-11-12T04:55:57.008Z,3.20
2022-11-12T04:57:00.726Z,2.70
2022-11-12T04:58:03.630Z,3.60
2022-11-12T04:59:07.071Z,4.00
2022-11-12T05:00:12.764Z,3.20
2022-11-12T05:01:15.038Z,2.58
2022-11-12T05:02:18.665Z,3.05
2022-11-12T05:03:20.832Z,3.35
2022-11-12T05:04:27.556Z,3.60
2022-11-12T05:05:33.820Z,2.90
2022-11-12T05:06:54.459Z,2.63
2022-11-12T05:08:00.223Z,2.83
2022-11-12T05:09:02.144Z,2.38
2022-11-12T05:10:05.494Z,3.15
2022-11-12T05:11:12.479Z,2.63
2022-11-12T05:12:15.933Z,2.92
2022-11-12T05:13:17.882Z,2.88
2022-11-12T05:14:22.978Z,2.75
2022-11-12T05:15:25.225Z,2.83
2022-11-12T05:16:28.205Z,3.35
2022-11-12T05:17:31.198Z,2.60
2022-11-12T05:18:33.111Z,2.70
2022-11-12T05:19:36.171Z,2.08
2022-11-12T05:20:38.089Z,2.83
2022-11-12T05:21:58.460Z,2.30
2022-11-12T05:23:08.421Z,2.75
2022-11-12T05:24:22.448Z,2.63
2022-11-12T05:25:33.304Z,2.47
2022-11-12T05:26:35.225Z,2.53
2022-11-12T05:27:38.183Z,3.03
2022-11-12T05:28:40.135Z,2.55
2022-11-12T05:29:44.696Z,2.95
2022-11-12T05:30:48.322Z,2.40
2022-11-12T05:31:51.344Z,2.47
2022-11-12T05:32:54.245Z,2.20
2022-11-12T05:33:56.337Z,2.50
2022-11-12T05:34:59.276Z,2.25
2022-11-12T05:36:01.200Z,2.45
2022-11-12T05:37:05.380Z,2.00
2022-11-12T05:38:07.294Z,2.30
2022-11-12T05:39:10.200Z,2.25
2022-11-12T05:40:14.217Z,2.42
2022-11-12T05:41:20.178Z,2.13
2022-11-12T05:42:23.415Z,2.55
2022-11-12T05:43:25.330Z,2.22
2022-11-12T05:44:28.253Z,2.58
2022-11-12T05:45:32.524Z,2.40
2022-11-12T05:46:34.529Z,2.50
2022-11-12T05:47:37.446Z,2.45
2022-11-12T05:48:39.403Z,2.45
2022-11-12T05:49:42.328Z,2.40
2022-11-12T05:51:11.445Z,2.70
2022-11-12T05:52:07.214Z,2.88
2022-11-12T05:53:09.146Z,3.33
2022-11-12T05:54:12.692Z,3.15
2022-11-12T05:55:14.700Z,3.00
2022-11-12T05:56:17.690Z,2.55
2022-11-12T05:57:20.626Z,2.63
2022-11-12T05:58:22.650Z,2.75
2022-11-12T05:59:25.595Z,2.67
2022-11-12T06:00:27.568Z,2.97
2022-11-12T06:01:32.085Z,2.85
2022-11-12T06:02:34.072Z,2.80
2022-11-12T06:03:37.037Z,2.70
2022-11-12T06:04:39.928Z,2.90
2022-11-12T06:05:41.871Z,2.22
2022-11-12T06:06:45.807Z,2.65
2022-11-12T06:07:47.813Z,2.67
2022-11-12T06:08:50.844Z,2.35
2022-11-12T06:09:53.788Z,2.63
2022-11-12T06:10:56.333Z,2.63
2022-11-12T06:11:59.224Z,2.17
2022-11-12T06:13:01.177Z,2.17
2022-11-12T06:14:04.995Z,2.22
2022-11-12T06:15:07.844Z,2.50
2022-11-12T06:16:10.808Z,2.63
2022-11-12T06:17:14.088Z,2.33
2022-11-12T06:18:17.012Z,2.13
2022-11-12T06:19:19.948Z,2.80
2022-11-12T06:20:22.268Z,2.50
2022-11-12T06:21:27.472Z,2.22
2022-11-12T06:22:29.410Z,2.60
2022-11-12T06:23:32.390Z,2.97
2022-11-12T06:24:35.696Z,2.30
2022-11-12T06:25:37.624Z,2.95
2022-11-12T06:26:40.610Z,2.40
2022-11-12T06:27:43.212Z,3.08
2022-11-12T06:28:46.730Z,2.70
2022-11-12T06:29:48.733Z,2.53
2022-11-12T06:30:51.701Z,2.75
2022-11-12T06:31:54.654Z,2.83
2022-11-12T06:32:57.957Z,2.72
2022-11-12T06:34:00.861Z,2.45
2022-11-12T06:35:02.957Z,2.92
2022-11-12T06:36:07.110Z,2.75
2022-11-12T06:37:09.039Z,3.17
2022-11-12T06:38:12.083Z,3.05
2022-11-12T06:39:14.249Z,3.17
2022-11-12T06:40:17.336Z,2.60
2022-11-12T06:41:20.387Z,3.10
2022-11-12T06:42:22.337Z,2.80
2022-11-12T06:43:25.386Z,2.40
2022-11-12T06:44:27.696Z,2.33
2022-11-12T06:45:30.597Z,2.70
2022-11-12T06:46:33.633Z,2.20
2022-11-12T06:47:35.588Z,2.90
2022-11-12T06:48:40.393Z,2.30
2022-11-12T06:49:42.327Z,1.77
2022-11-12T06:50:45.273Z,2.15
2022-11-12T06:51:47.228Z,2.72
2022-11-12T06:52:50.144Z,2.42
2022-11-12T06:53:53.072Z,2.67
2022-11-12T06:54:55.017Z,2.80
2022-11-12T06:56:03.465Z,2.47
2022-11-12T06:57:05.376Z,2.45
2022-11-12T06:58:08.352Z,1.80
2022-11-12T06:59:10.574Z,2.35
2022-11-12T07:00:14.492Z,2.40
2022-11-12T07:01:18.694Z,2.30
2022-11-12T07:02:20.640Z,2.40
2022-11-12T07:03:23.526Z,2.35
2022-11-12T07:04:26.837Z,2.13
2022-11-12T07:05:31.187Z,2.03
2022-11-12T07:06:35.224Z,1.88
2022-11-12T07:07:37.225Z,1.98
2022-11-12T07:08:40.906Z,1.60
2022-11-12T07:09:43.784Z,2.08
2022-11-12T07:10:45.712Z,1.92
2022-11-12T07:11:48.652Z,1.63
2022-11-12T07:12:53.390Z,1.45
2022-11-12T07:13:56.746Z,1.20
2022-11-12T07:14:58.695Z,1.75
2022-11-12T07:16:02.913Z,1.50
2022-11-12T07:17:04.828Z,2.17
2022-11-12T07:18:08.005Z,2.40
2022-11-12T07:19:09.923Z,2.00
2022-11-12T07:20:14.791Z,1.60
2022-11-12T07:21:19.068Z,1.80
2022-11-12T07:22:22.089Z,2.20
2022-11-12T07:23:24.036Z,2.45
2022-11-12T07:24:26.956Z,2.08
2022-11-12T07:25:28.911Z,1.70
2022-11-12T07:26:31.840Z,1.95
2022-11-12T07:27:33.774Z,2.22
2022-11-12T07:28:36.782Z,1.98
2022-11-12T07:29:47.510Z,2.13
2022-11-12T07:30:56.541Z,1.90
2022-11-12T07:31:58.484Z,1.75
2022-11-12T07:33:01.456Z,2.03
2022-11-12T07:34:03.456Z,1.52
2022-11-12T07:35:07.157Z,1.90
2022-11-12T07:36:13.415Z,1.83
2022-11-12T07:37:16.458Z,2.20
2022-11-12T07:38:18.423Z,1.70
2022-11-12T07:39:21.291Z,1.83
2022-11-12T07:40:24.190Z,1.90
2022-11-12T07:41:27.123Z,2.30
2022-11-12T07:42:29.033Z,2.17
2022-11-12T07:43:32.549Z,1.92
2022-11-12T07:44:34.504Z,2.50
2022-11-12T07:45:37.435Z,1.92
2022-11-12T07:46:39.361Z,2.15
2022-11-12T07:47:42.278Z,2.40
2022-11-12T07:48:45.029Z,2.03
2022-11-12T07:49:47.963Z,2.35
2022-11-12T07:50:49.872Z,2.35
2022-11-12T07:51:54.166Z,1.80
2022-11-12T07:52:58.916Z,2.15
2022-11-12T07:54:02.009Z,1.85
2022-11-12T07:55:05.936Z,1.95
2022-11-12T07:56:10.731Z,2.42
2022-11-12T07:57:13.676Z,2.20
2022-11-12T07:58:15.603Z,2.45
2022-11-12T07:59:18.503Z,2.00
2022-11-12T08:00:21.509Z,2.05
2022-11-12T08:01:27.008Z,2.20
2022-11-12T08:02:29.924Z,2.60
2022-11-12T08:03:31.833Z,1.95
2022-11-12T08:04:34.788Z,1.75
2022-11-12T08:05:36.744Z,2.85
2022-11-12T08:06:40.048Z,2.22
2022-11-12T08:07:44.537Z,2.30
2022-11-12T08:08:46.590Z,2.10
2022-11-12T08:09:49.515Z,1.90
2022-11-12T08:10:55.375Z,2.30
2022-11-12T08:11:58.324Z,1.90
2022-11-12T08:13:00.271Z,2.78
2022-11-12T08:14:05.067Z,2.50
2022-11-12T08:15:08.360Z,2.50
2022-11-12T08:16:10.261Z,2.35
2022-11-12T08:17:13.155Z,2.72
2022-11-12T08:18:15.168Z,2.38
2022-11-12T08:19:18.092Z,2.78
2022-11-12T08:20:20.033Z,2.72
2022-11-12T08:21:23.253Z,3.15
2022-11-12T08:22:25.197Z,2.67
2022-11-12T08:23:29.795Z,2.60
2022-11-12T08:24:31.757Z,2.80
2022-11-12T08:25:34.664Z,2.58
2022-11-12T08:26:36.791Z,2.65
2022-11-12T08:27:40.644Z,2.38
2022-11-12T08:28:42.726Z,2.92
2022-11-12T08:29:45.604Z,2.80
2022-11-12T08:30:47.575Z,2.72
2022-11-12T08:31:50.552Z,2.30
2022-11-12T08:32:56.913Z,2.85
2022-11-12T08:33:59.941Z,2.13
2022-11-12T08:35:02.867Z,2.60
2022-11-12T08:36:06.347Z,2.45
2022-11-12T08:37:09.235Z,2.53
2022-11-12T08:38:11.259Z,2.70
2022-11-12T08:39:15.557Z,2.35
2022-11-12T08:40:17.529Z,2.95
2022-11-12T08:41:20.513Z,3.08
2022-11-12T08:42:22.572Z,2.78
2022-11-12T08:43:25.489Z,2.25
2022-11-12T08:44:28.413Z,2.47
2022-11-12T08:45:33.219Z,3.20
2022-11-12T08:46:36.244Z,3.20
2022-11-12T08:47:38.170Z,3.13
2022-11-12T08:48:41.592Z,2.88
2022-11-12T08:49:47.791Z,3.70
2022-11-12T08:50:51.164Z,2.90
2022-11-12T08:51:53.123Z,2.67
2022-11-12T08:53:00.764Z,3.20
2022-11-12T08:54:03.657Z,3.30
2022-11-12T08:55:08.583Z,2.35
2022-11-12T08:56:11.499Z,3.20
2022-11-12T08:57:13.411Z,2.33
2022-11-12T08:58:16.351Z,2.83
2022-11-12T08:59:19.311Z,3.03
2022-11-12T09:00:21.381Z,3.72
2022-11-12T09:01:24.317Z,3.45
2022-11-12T09:02:26.260Z,3.10
2022-11-12T09:03:29.196Z,3.83
2022-11-12T09:04:32.084Z,3.70
2022-11-12T09:05:35.297Z,4.75
2022-11-12T09:06:38.362Z,3.95
2022-11-12T09:07:50.131Z,3.95
2022-11-12T09:08:53.453Z,2.75
2022-11-12T09:09:55.502Z,3.10
2022-11-12T09:11:00.412Z,3.35
2022-11-12T09:12:10.498Z,3.80
2022-11-12T09:13:17.251Z,3.40
2022-11-12T09:14:19.329Z,3.22
2022-11-12T09:15:36.864Z,3.28
2022-11-12T09:16:40.657Z,3.30
2022-11-12T09:17:43.730Z,3.20
2022-11-12T09:18:46.656Z,3.30
2022-11-12T09:19:48.608Z,3.53
2022-11-12T09:20:51.556Z,3.10
2022-11-12T09:21:54.447Z,3.65
2022-11-12T09:23:01.703Z,3.30
2022-11-12T09:24:04.796Z,3.35
2022-11-12T09:25:07.719Z,3.30
2022-11-12T09:26:11.986Z,3.88
2022-11-12T09:27:13.933Z,3.60
2022-11-12T09:28:18.362Z,3.95
2022-11-12T09:29:20.693Z,4.50
2022-11-12T09:30:23.960Z,3.50
2022-11-12T09:31:27.129Z,3.85
2022-11-12T09:32:29.252Z,4.28
2022-11-12T09:33:34.036Z,3.97
2022-11-12T09:34:35.948Z,3.30
2022-11-12T09:35:38.851Z,3.58
2022-11-12T09:36:41.972Z,4.43
2022-11-12T09:37:44.095Z,3.78
2022-11-12T09:38:47.076Z,3.47
2022-11-12T09:39:48.992Z,3.47
2022-11-12T09:41:15.321Z,3.40
2022-11-12T09:42:20.720Z,3.58
2022-11-12T09:43:28.693Z,3.30
2022-11-12T09:44:36.805Z,3.45
2022-11-12T09:45:40.013Z,3.10
2022-11-12T09:46:49.313Z,3.95
2022-11-12T09:47:55.809Z,3.55
2022-11-12T09:49:06.428Z,3.47
2022-11-12T09:50:21.387Z,3.50
2022-11-12T09:51:27.285Z,3.60
2022-11-12T09:52:31.484Z,3.47
2022-11-12T09:53:44.236Z,3.90
2022-11-12T09:54:52.046Z,3.88
2022-11-12T09:55:54.405Z,4.13
2022-11-12T09:56:58.732Z,4.28
2022-11-12T09:58:00.975Z,3.63
2022-11-12T09:59:03.947Z,3.80
2022-11-12T10:00:15.456Z,4.25
2022-11-12T10:01:24.140Z,4.32
2022-11-12T10:02:33.059Z,4.18
2022-11-12T10:03:40.116Z,3.72
2022-11-12T10:05:10.618Z,4.38
2022-11-12T10:06:19.452Z,4.55
2022-11-12T10:07:36.281Z,4.53
2022-11-12T10:08:49.389Z,4.25
2022-11-12T10:09:59.681Z,4.00
2022-11-12T10:11:14.464Z,4.40
2022-11-12T10:12:31.759Z,4.32
2022-11-12T10:13:47.380Z,4.43
2022-11-12T10:15:22.517Z,4.10
2022-11-12T10:16:43.132Z,4.47
2022-11-12T10:17:52.435Z,4.15
2022-11-12T10:19:23.072Z,4.30
2022-11-12T10:20:32.502Z,3.47
2022-11-12T10:21:47.572Z,3.67
2022-11-12T10:23:06.037Z,4.00
2022-11-12T10:24:11.777Z,3.90
2022-11-12T10:25:16.246Z,4.03
2022-11-12T10:26:21.509Z,3.97
2022-11-12T10:27:34.689Z,4.72
2022-11-12T10:28:44.172Z,4.03
2022-11-12T10:29:54.297Z,4.30
2022-11-12T10:31:01.904Z,3.75
2022-11-12T10:32:05.065Z,4.20
2022-11-12T10:33:11.752Z,4.40
2022-11-12T10:34:19.572Z,3.78
2022-11-12T10:35:23.348Z,3.30
2022-11-12T10:36:30.973Z,3.97
2022-11-12T10:37:39.068Z,4.40
2022-11-12T10:38:44.351Z,3.88
2022-11-12T10:39:47.726Z,3.63
2022-11-12T10:40:50.645Z,3.85
2022-11-12T10:42:04.368Z,3.80
2022-11-12T10:43:23.003Z,4.10
2022-11-12T10:44:26.784Z,4.00
2022-11-12T10:45:30.295Z,4.13
2022-11-12T10:46:36.288Z,3.97
2022-11-12T10:47:42.795Z,4.10
2022-11-12T10:48:55.684Z,3.90
2022-11-12T10:50:21.337Z,3.55
2022-11-12T10:51:30.811Z,3.85
2022-11-12T10:52:32.932Z,3.63
2022-11-12T10:53:37.820Z,3.88
2022-11-12T10:54:39.724Z,3.97
2022-11-12T10:55:57.349Z,3.83
2022-11-12T10:57:23.924Z,4.40
2022-11-12T10:58:28.505Z,3.97
2022-11-12T10:59:32.689Z,4.38
2022-11-12T11:00:35.833Z,3.65
2022-11-12T11:01:45.360Z,2.70
2022-11-12T11:02:51.192Z,3.67
2022-11-12T11:03:58.078Z,3.53
2022-11-12T11:05:01.029Z,4.53
2022-11-12T11:06:05.756Z,3.58
2022-11-12T11:07:20.151Z,4.15
2022-11-12T11:08:39.579Z,3.88
2022-11-12T11:09:55.603Z,3.53
2022-11-12T11:11:18.183Z,3.78
2022-11-12T11:12:24.852Z,3.88
2022-11-12T11:13:28.185Z,3.90
2022-11-12T11:14:33.586Z,4.30
2022-11-12T11:15:35.657Z,4.72
2022-11-12T11:16:50.984Z,4.65
2022-11-12T11:17:52.941Z,4.50
2022-11-12T11:18:59.709Z,5.10
2022-11-12T11:20:02.109Z,5.18
2022-11-12T11:21:14.314Z,5.70
2022-11-12T11:22:37.830Z,6.07
2022-11-12T11:23:47.385Z,4.32
2022-11-12T11:25:03.028Z,5.07
2022-11-12T11:26:20.549Z,5.35
2022-11-12T11:27:32.289Z,5.30
2022-11-12T11:28:42.209Z,8.07
2022-11-12T11:30:04.352Z,5.72
2022-11-12T11:31:18.254Z,4.78
2022-11-12T11:32:37.219Z,4.53
2022-11-12T11:33:48.256Z,4.30
2022-11-12T11:35:04.342Z,4.25
2022-11-12T11:36:20.914Z,4.20
2022-11-12T11:37:28.022Z,4.40
2022-11-12T11:38:45.447Z,4.57
2022-11-12T11:39:57.517Z,4.65
2022-11-12T11:41:08.949Z,4.60
2022-11-12T11:42:43.093Z,5.60
2022-11-12T11:43:57.789Z,6.57
2022-11-12T11:45:08.472Z,5.53
2022-11-12T11:46:22.936Z,5.38
2022-11-12T11:47:59.392Z,5.63
2022-11-12T11:49:16.464Z,5.07
2022-11-12T11:50:25.699Z,5.53
2022-11-12T11:51:39.704Z,4.47
2022-11-12T11:52:46.850Z,4.70
2022-11-12T11:53:57.200Z,4.60
2022-11-12T11:55:11.440Z,4.43
2022-11-12T11:56:22.472Z,4.55
2022-11-12T11:57:30.629Z,5.10
2022-11-12T11:59:03.914Z,5.35
2022-11-12T12:00:18.028Z,5.45
2022-11-12T12:01:27.417Z,5.10
2022-11-12T12:02:54.055Z,5.78
2022-11-12T12:04:17.069Z,5.75
2022-11-12T12:05:32.801Z,5.40
2022-11-12T12:06:46.437Z,5.32
2022-11-12T12:07:55.949Z,5.43
2022-11-12T12:09:18.841Z,4.75
2022-11-12T12:10:46.268Z,5.22
2022-11-12T12:11:56.451Z,5.43
2022-11-12T12:13:06.024Z,5.65
2022-11-12T12:14:29.136Z,6.00
2022-11-12T12:15:45.406Z,6.65
2022-11-12T12:17:00.068Z,5.32
2022-11-12T12:18:10.436Z,6.15
2022-11-12T12:19:25.988Z,5.15
2022-11-12T12:20:35.956Z,5.93
2022-11-12T12:21:42.942Z,6.28
2022-11-12T12:22:51.320Z,6.45
2022-11-12T12:24:01.781Z,6.72
2022-11-12T12:25:12.341Z,6.80
2022-11-12T12:26:19.960Z,7.65
2022-11-12T12:27:24.624Z,6.75
2022-11-12T12:28:35.880Z,6.80
2022-11-12T12:29:40.839Z,7.28
2022-11-12T12:30:50.200Z,8.10
2022-11-12T12:31:55.980Z,6.30
2022-11-12T12:33:03.556Z,7.13
2022-11-12T12:34:12.559Z,9.25
2022-11-12T12:35:25.109Z,8.43
2022-11-12T12:36:32.409Z,7.10
2022-11-12T12:37:39.676Z,7.38
2022-11-12T12:38:46.204Z,6.82
2022-11-12T12:39:56.065Z,7.63
2022-11-12T12:41:06.233Z,12.30
2022-11-12T12:42:18.339Z,10.13
2022-11-12T12:43:27.725Z,8.15
2022-11-12T12:44:55.801Z,7.50
2022-11-12T12:46:00.448Z,7.20
2022-11-12T12:47:03.390Z,7.10
2022-11-12T12:48:09.752Z,7.35
2022-11-12T12:49:17.748Z,6.75
2022-11-12T12:50:22.253Z,5.07
2022-11-12T12:51:29.332Z,6.47
2022-11-12T12:52:51.698Z,5.70
2022-11-12T12:53:54.592Z,5.55
2022-11-12T12:54:58.036Z,5.32
2022-11-12T12:56:03.025Z,5.63
2022-11-12T12:57:05.477Z,6.60
2022-11-12T12:58:19.087Z,6.75
2022-11-12T12:59:23.989Z,5.57
2022-11-12T13:00:29.703Z,5.55
2022-11-12T13:01:36.692Z,5.50
2022-11-12T13:02:38.823Z,5.70
2022-11-12T13:03:56.431Z,5.63
2022-11-12T13:04:59.547Z,6.43
2022-11-12T13:06:08.365Z,5.97
2022-11-12T13:07:11.572Z,6.50
2022-11-12T13:08:21.627Z,6.22
2022-11-12T13:09:26.564Z,4.65
2022-11-12T13:10:53.695Z,5.10
2022-11-12T13:12:14.188Z,6.22
2022-11-12T13:13:32.313Z,5.65
2022-11-12T13:15:13.756Z,5.55
2022-11-12T13:17:03.500Z,5.53
2022-11-12T13:18:14.248Z,5.85
2022-11-12T13:19:28.915Z,5.30
2022-11-12T13:20:37.250Z,5.65
2022-11-12T13:21:40.152Z,6.93
2022-11-12T13:22:51.772Z,6.57
2022-11-12T13:24:08.043Z,7.10
2022-11-12T13:25:27.712Z,8.95
2022-11-12T13:26:53.043Z,7.45
2022-11-12T13:28:07.569Z,6.10
2022-11-12T13:29:22.027Z,6.40
2022-11-12T13:30:59.383Z,6.25
2022-11-12T13:32:37.781Z,5.25
2022-11-12T13:33:40.950Z,6.85
2022-11-12T13:34:42.888Z,8.45
2022-11-12T13:35:45.797Z,8.57
2022-11-12T13:36:56.546Z,6.28
2022-11-12T13:38:06.283Z,5.70
2022-11-12T13:39:16.065Z,5.03
2022-11-12T13:40:38.537Z,5.50
2022-11-12T13:41:58.733Z,5.25
2022-11-12T13:43:08.541Z,4.70
2022-11-12T13:44:16.712Z,5.85
2022-11-12T13:45:21.544Z,5.80
2022-11-12T13:46:29.034Z,6.90
2022-11-12T13:47:33.487Z,6.80
2022-11-12T13:48:42.988Z,6.13
2022-11-12T13:49:47.725Z,5.97
2022-11-12T13:50:53.087Z,5.53
2022-11-12T13:51:56.736Z,5.50
2022-11-12T13:52:59.929Z,6.07
2022-11-12T13:54:03.268Z,6.05
2022-11-12T13:55:08.723Z,7.78
2022-11-12T13:56:11.425Z,6.32
2022-11-12T13:57:30.564Z,5.00
2022-11-12T13:58:34.669Z,5.25
2022-11-12T13:59:37.561Z,4.80
2022-11-12T14:00:39.727Z,5.10
2022-11-12T14:01:43.149Z,4.75
2022-11-12T14:02:49.033Z,5.95
2022-11-12T14:03:54.188Z,6.22
2022-11-12T14:04:57.224Z,7.15
2022-11-12T14:06:06.182Z,6.97
2022-11-12T14:07:27.741Z,6.68
2022-11-12T14:08:45.988Z,5.65
2022-11-12T14:10:01.327Z,6.70
2022-11-12T14:11:32.859Z,5.95
2022-11-12T14:12:52.080Z,5.90
2022-11-12T14:14:03.941Z,4.57
2022-11-12T14:15:23.724Z,5.93
2022-11-12T14:16:42.189Z,5.10
2022-11-12T14:17:56.225Z,5.05
2022-11-12T14:19:35.118Z,5.18
2022-11-12T14:20:38.786Z,5.03
2022-11-12T14:21:41.865Z,5.72
2022-11-12T14:22:45.256Z,5.53
2022-11-12T14:23:50.056Z,6.30
2022-11-12T14:24:59.482Z,6.35
2022-11-12T14:26:02.524Z,9.60
2022-11-12T14:27:04.519Z,7.35
2022-11-12T14:28:27.015Z,6.70
2022-11-12T14:29:35.350Z,5.30
2022-11-12T14:30:45.890Z,5.40
2022-11-12T14:32:00.907Z,5.10
2022-11-12T14:33:10.576Z,5.63
2022-11-12T14:34:28.331Z,5.15
2022-11-12T14:35:35.060Z,6.50
2022-11-12T14:36:38.360Z,5.65
2022-11-12T14:37:50.943Z,5.57
2022-11-12T14:38:56.520Z,5.80
2022-11-12T14:39:58.447Z,5.72
2022-11-12T14:41:04.940Z,5.82
2022-11-12T14:42:15.215Z,5.45
2022-11-12T14:43:28.489Z,5.30
2022-11-12T14:44:36.528Z,5.57